Αρχική σελίδα
METAR-TAF:

METAR-TAF

Αεροδρόμια :

Τζέντα, Σαουδική Αραβία

γεωγραφικό πλάτος: 21-42N, γεωγραφικό μήκος: 039-11E, υψόμετρο: 15 μ

Παρών καιρός

Η αναφορά έγινε 9 λεπτά πριν, στις 00:00 UTC
Άνεμος 4 kt από Δ
Θερμοκρασία 31°C
Υγρασία 66%
Πίεση 1004 hPa
Ορατότητα 10 χλμ και άνω
Δεν υπάρχουν νέφη με βάση κάτω από τα 1500 μ. και δεν υπάρχουν νέφη σωρειτομελανίτες.

METAR: OEJN 170000Z 27004KT CAVOK 31/24 Q1004 NOSIG

Χρόνος: 03:09 (00:09 UTC)

Πρόγνωση Καιρού

Η αναφορά έγινε 1 ώρα και 9 λεπτά πριν, στις 23:00 UTC
Η πρόγνωση ισχύει από τις 17 στις 00 UTC έως τις 18 στις 06 UTC
Άνεμος 3 kt από μεταβλητές κατευθύνσεις
Ορατότητα: 7000 μ
Καθιστάμενος
από 17 στις 06 UTC έως τις 17 στις 08 UTC
Άνεμος 10 kt από Δ

TAF: OEJN 162300Z 1700/1806 VRB03KT 7000 NSC BECMG 1706/1708 27010KT

Μετεωρολογικές αναφορές και προγνώσεις για περισσότερα από 4000 αεροδρόμια (δελτία METAR και TAF).

Οι διαθέσιμοι σταθμοί απεικονίζονται στο χάρτη με κίτρινες και κόκκινες κουκκίδες.

Μετακινήστε το ποντίκι πάνω από τις κουκκίδες για να δείτε το όνομα του σταθμού.

Στη συνέχεια, κάντε κλικ για να δείτε τις μετεωρολογικές αναφορές και τις προγνώσεις καιρού.

Για να αλλάξετε το χάρτη: κάντε κλικ στα πράσινα κουμπιά με τον μαύρο σταυρό για να ζουμάρετε, στο πράσινο κουμπί με την παύλα για να αφαιρέσετε το ζουμ ή στα πράσινα βέλη για να αντιπαραβάλλετε χάρτες.


METAR-TAF: